createdAt,value
2023-01-09T00:01:27.961Z,19.10
2023-01-09T00:03:55.032Z,17.00
2023-01-09T00:06:22.019Z,15.60
2023-01-09T00:08:49.064Z,15.40
2023-01-09T00:13:58.048Z,16.00
2023-01-09T00:16:25.066Z,16.00
2023-01-09T00:18:53.495Z,19.70
2023-01-09T00:21:20.449Z,17.40
2023-01-09T00:23:47.880Z,15.80
2023-01-09T00:26:18.006Z,15.10
2023-01-09T00:28:48.870Z,14.50
2023-01-09T00:31:16.573Z,15.60
2023-01-09T00:33:59.512Z,19.00
2023-01-09T00:36:26.750Z,17.70
2023-01-09T00:38:53.703Z,15.60
2023-01-09T00:41:30.316Z,16.10
2023-01-09T00:43:58.923Z,14.50
2023-01-09T00:46:31.937Z,15.60
2023-01-09T00:48:58.882Z,14.40
2023-01-09T00:51:25.915Z,16.10
2023-01-09T00:53:52.868Z,13.00
2023-01-09T00:56:20.229Z,15.50
2023-01-09T00:58:47.183Z,14.60
2023-01-09T01:01:14.249Z,14.10
2023-01-09T01:03:41.419Z,14.10
2023-01-09T01:06:27.057Z,13.60
2023-01-09T01:08:55.977Z,14.10
2023-01-09T01:11:23.062Z,15.10
2023-01-09T01:13:50.185Z,13.00
2023-01-09T01:16:18.651Z,13.80
2023-01-09T01:18:45.722Z,16.00
2023-01-09T01:21:13.507Z,14.80
2023-01-09T01:23:40.463Z,14.80
2023-01-09T01:26:09.160Z,13.30
2023-01-09T01:28:36.281Z,11.50
2023-01-09T01:31:03.426Z,13.70
2023-01-09T01:33:30.539Z,12.80
2023-01-09T01:36:17.740Z,14.60
2023-01-09T01:38:44.832Z,12.50
2023-01-09T01:41:11.921Z,13.30
2023-01-09T01:43:53.234Z,12.00
2023-01-09T01:46:20.258Z,13.20
2023-01-09T01:48:48.607Z,13.00
2023-01-09T01:51:17.087Z,13.00
2023-01-09T01:53:46.688Z,11.90
2023-01-09T01:56:24.788Z,12.40
2023-01-09T01:59:22.902Z,11.60
2023-01-09T02:01:51.815Z,14.70
2023-01-09T02:04:18.926Z,13.20
2023-01-09T02:06:47.397Z,12.60
2023-01-09T02:09:15.465Z,11.90
2023-01-09T02:11:46.441Z,11.50
2023-01-09T02:14:13.896Z,12.40
2023-01-09T02:16:40.917Z,12.10
2023-01-09T02:19:45.731Z,13.30
2023-01-09T02:22:51.079Z,8.90
2023-01-09T02:25:45.982Z,9.70
2023-01-09T02:28:50.782Z,10.50
2023-01-09T02:31:22.407Z,9.80
2023-01-09T02:34:00.148Z,11.00
2023-01-09T02:36:49.105Z,13.40
2023-01-09T02:39:33.624Z,11.00
2023-01-09T02:42:06.903Z,9.90
2023-01-09T02:44:38.288Z,8.90
2023-01-09T02:47:24.022Z,9.30
2023-01-09T02:49:54.236Z,12.90
2023-01-09T02:52:38.031Z,9.60
2023-01-09T02:55:42.925Z,12.00
2023-01-09T02:58:40.002Z,13.20
2023-01-09T03:01:16.210Z,10.60
2023-01-09T03:03:57.881Z,10.30
2023-01-09T03:06:28.202Z,8.10
2023-01-09T03:08:56.645Z,9.80
2023-01-09T03:11:23.621Z,9.80
2023-01-09T03:14:06.093Z,8.20
2023-01-09T03:16:35.752Z,9.80
2023-01-09T03:19:04.394Z,9.40
2023-01-09T03:21:31.342Z,10.50
2023-01-09T03:23:59.830Z,12.70
2023-01-09T03:26:26.961Z,9.70
2023-01-09T03:28:53.919Z,10.80
2023-01-09T03:31:20.958Z,10.20
2023-01-09T03:33:48.318Z,9.70
2023-01-09T03:36:16.538Z,8.80
2023-01-09T03:38:43.635Z,9.00
2023-01-09T03:41:10.598Z,8.90
2023-01-09T03:43:37.707Z,9.80
2023-01-09T03:46:05.745Z,10.20
2023-01-09T03:48:32.750Z,11.30
2023-01-09T03:50:59.803Z,10.20
2023-01-09T03:53:27.859Z,10.10
2023-01-09T03:55:56.340Z,11.50
2023-01-09T03:58:23.767Z,10.70
2023-01-09T04:00:51.194Z,12.90
2023-01-09T04:03:20.371Z,10.70
2023-01-09T04:05:48.254Z,11.50
2023-01-09T04:08:15.477Z,12.10
2023-01-09T04:10:48.409Z,11.20
2023-01-09T04:13:15.476Z,11.00
2023-01-09T04:15:42.453Z,14.20
2023-01-09T04:18:09.465Z,12.60
2023-01-09T04:20:36.465Z,13.40
2023-01-09T04:23:03.414Z,11.20
2023-01-09T04:25:30.482Z,12.70
2023-01-09T04:27:57.552Z,14.00
2023-01-09T04:30:24.693Z,12.80
2023-01-09T06:07:23.802Z,11.90
2023-01-09T06:09:50.812Z,13.80
2023-01-09T06:12:17.753Z,11.70
2023-01-09T06:14:44.654Z,12.00
2023-01-09T06:17:12.031Z,11.20
2023-01-09T06:19:38.955Z,12.60
2023-01-09T06:22:05.881Z,15.10
2023-01-09T06:24:32.811Z,14.30
2023-01-09T06:26:59.744Z,12.30
2023-01-09T06:29:26.709Z,12.40
2023-01-09T06:31:53.712Z,12.10
2023-01-09T06:34:20.625Z,12.10
2023-01-09T06:36:47.615Z,13.40
2023-01-09T06:39:14.636Z,12.80
2023-01-09T06:41:41.768Z,12.90
2023-01-09T06:44:08.787Z,11.20
2023-01-09T06:46:35.695Z,12.80
2023-01-09T06:49:02.613Z,15.10
2023-01-09T06:51:29.533Z,12.80
2023-01-09T06:53:56.428Z,11.40
2023-01-09T06:56:23.394Z,14.20
2023-01-09T06:58:50.423Z,13.70
2023-01-09T07:01:17.490Z,10.80
2023-01-09T07:03:45.223Z,13.10
2023-01-09T07:06:12.170Z,12.50
2023-01-09T07:08:39.195Z,10.60
2023-01-09T07:11:06.129Z,12.70
2023-01-09T07:13:33.057Z,11.20
2023-01-09T07:16:00.108Z,12.30
2023-01-09T07:18:27.117Z,13.00
2023-01-09T07:20:54.077Z,11.30
2023-01-09T07:23:21.041Z,11.70
2023-01-09T07:25:48.265Z,12.60
2023-01-09T07:28:15.206Z,12.00
2023-01-09T07:30:42.141Z,14.30
2023-01-09T07:33:09.103Z,12.90
2023-01-09T07:35:36.102Z,12.30
2023-01-09T07:38:02.992Z,13.30
2023-01-09T07:40:30.045Z,15.40
2023-01-09T07:42:57.046Z,9.70
2023-01-09T07:45:23.954Z,14.40
2023-01-09T07:47:52.500Z,13.90
2023-01-09T07:50:19.905Z,12.50
2023-01-09T07:52:46.932Z,15.10
2023-01-09T07:55:16.094Z,13.70
2023-01-09T07:57:47.810Z,13.70
2023-01-09T08:00:15.065Z,13.20
2023-01-09T08:02:42.077Z,11.10
2023-01-09T08:05:13.771Z,12.80
2023-01-09T08:07:41.234Z,15.50
2023-01-09T08:10:10.686Z,13.40
2023-01-09T08:12:37.691Z,12.80
2023-01-09T08:15:05.059Z,12.80
2023-01-09T08:17:32.506Z,14.10
2023-01-09T08:19:59.426Z,13.30
2023-01-09T08:22:26.369Z,12.20
2023-01-09T08:24:53.275Z,12.50
2023-01-09T08:27:20.198Z,12.30
2023-01-09T08:29:47.103Z,13.90
2023-01-09T08:32:14.056Z,11.70
2023-01-09T08:34:41.036Z,11.30
2023-01-09T08:37:08.005Z,12.00
2023-01-09T08:39:36.202Z,16.70
2023-01-09T08:42:21.833Z,11.50
2023-01-09T08:45:07.527Z,13.50
2023-01-09T08:47:34.552Z,12.10
2023-01-09T08:50:01.570Z,12.50
2023-01-09T08:52:30.949Z,12.40
2023-01-09T08:54:57.873Z,11.10
2023-01-09T08:57:24.974Z,11.50
2023-01-09T08:59:54.290Z,10.70
2023-01-09T09:02:21.264Z,11.30
2023-01-09T09:04:51.903Z,10.60
2023-01-09T09:07:26.907Z,13.50
2023-01-09T09:09:54.620Z,9.60
2023-01-09T09:12:21.987Z,13.00
2023-01-09T09:15:07.733Z,12.00
2023-01-09T09:17:34.750Z,9.80
2023-01-09T09:20:01.672Z,10.70
2023-01-09T09:22:28.578Z,9.50
2023-01-09T09:24:55.543Z,10.80
2023-01-09T09:27:22.495Z,10.20
2023-01-09T09:29:49.411Z,10.10
2023-01-09T09:32:16.374Z,11.70
2023-01-09T09:34:43.270Z,13.70
2023-01-09T09:37:10.282Z,11.70
2023-01-09T09:39:37.367Z,11.90
2023-01-09T09:42:52.103Z,9.30
2023-01-09T09:45:37.297Z,10.40
2023-01-09T09:48:43.411Z,9.20
2023-01-09T09:51:35.364Z,8.40
2023-01-09T09:54:12.287Z,11.10
2023-01-09T09:56:51.878Z,10.80
2023-01-09T09:59:20.472Z,10.10
2023-01-09T10:02:05.070Z,14.30
2023-01-09T10:04:32.970Z,9.70
2023-01-09T10:07:06.770Z,10.30
2023-01-09T10:09:36.724Z,9.50
2023-01-09T10:12:27.728Z,8.70
2023-01-09T10:15:09.924Z,9.60
2023-01-09T10:20:34.189Z,8.80
2023-01-09T10:23:07.577Z,8.00
2023-01-09T10:26:05.397Z,9.30
2023-01-09T10:28:46.573Z,7.70
2023-01-09T10:31:52.944Z,9.30
2023-01-09T10:34:36.889Z,8.30
2023-01-09T10:37:11.873Z,9.90
2023-01-09T10:39:52.702Z,8.10
2023-01-09T10:42:37.507Z,9.70
2023-01-09T10:45:12.891Z,8.10
2023-01-09T10:47:39.891Z,10.00
2023-01-09T10:50:22.832Z,8.40
2023-01-09T10:52:54.761Z,8.90
2023-01-09T10:55:54.263Z,9.00
2023-01-09T10:58:22.083Z,9.40
2023-01-09T11:00:50.071Z,8.00
2023-01-09T11:03:19.510Z,10.80
2023-01-09T11:05:54.226Z,8.50
2023-01-09T11:08:29.567Z,7.60
2023-01-09T11:11:00.698Z,9.60
2023-01-09T11:13:33.315Z,10.40
2023-01-09T11:16:22.764Z,9.20
2023-01-09T11:18:50.308Z,8.40
2023-01-09T11:21:33.550Z,10.10
2023-01-09T11:24:19.029Z,8.60
2023-01-09T11:26:46.716Z,10.60
2023-01-09T11:29:18.992Z,11.40
2023-01-09T11:31:59.672Z,9.00
2023-01-09T11:34:31.936Z,8.70
2023-01-09T11:37:09.963Z,8.60
2023-01-09T11:39:41.502Z,9.10
2023-01-09T11:42:18.771Z,8.30
2023-01-09T18:22:51.873Z,6.30
2023-01-09T18:25:19.024Z,6.40
2023-01-09T18:27:46.919Z,8.10
2023-01-09T18:30:14.365Z,7.10
2023-01-09T18:32:41.539Z,8.30
2023-01-09T18:35:09.492Z,7.40
2023-01-09T18:37:37.294Z,13.00
2023-01-09T18:40:05.226Z,8.00
2023-01-09T18:42:32.360Z,6.80
2023-01-09T18:44:59.411Z,8.00
2023-01-09T18:47:26.463Z,6.00
2023-01-09T18:49:53.560Z,6.60
2023-01-09T18:52:20.681Z,8.10
2023-01-09T18:54:47.665Z,7.80
2023-01-09T18:57:14.864Z,7.00
2023-01-09T18:59:41.916Z,5.30
2023-01-09T19:02:24.324Z,6.60
2023-01-09T19:04:51.374Z,6.50
2023-01-09T19:07:18.427Z,5.90
2023-01-09T19:09:45.586Z,6.30
2023-01-09T19:12:12.625Z,6.70
2023-01-09T19:14:39.692Z,6.30
2023-01-09T19:17:06.724Z,5.50
2023-01-09T19:19:34.296Z,6.10
2023-01-09T19:22:01.441Z,6.90
2023-01-09T19:24:28.693Z,5.40
2023-01-09T19:26:55.745Z,4.50
2023-01-09T19:29:22.799Z,8.50
2023-01-09T19:31:52.485Z,6.10
2023-01-09T19:34:21.110Z,6.60
2023-01-09T19:36:48.173Z,6.70
2023-01-09T19:39:15.728Z,6.20
2023-01-09T19:41:42.964Z,6.50
2023-01-09T19:44:11.131Z,6.40
2023-01-09T19:46:38.333Z,7.00
2023-01-09T19:49:06.373Z,5.70
2023-01-09T19:51:35.948Z,6.50
2023-01-09T19:56:32.229Z,7.60
2023-01-09T19:59:00.610Z,6.80
2023-01-09T20:01:41.998Z,5.70
2023-01-09T20:04:13.917Z,5.40
2023-01-09T20:06:43.926Z,5.50
2023-01-09T22:39:58.390Z,7.00
2023-01-09T22:42:25.432Z,5.70
2023-01-09T22:44:52.510Z,5.60
2023-01-09T22:47:19.513Z,6.30
2023-01-09T22:49:52.745Z,6.30
2023-01-09T22:52:20.678Z,4.70
2023-01-09T22:54:48.300Z,6.50
2023-01-09T22:57:15.317Z,6.40
2023-01-09T22:59:42.419Z,6.80
2023-01-09T23:02:09.453Z,4.30
2023-01-09T23:04:36.431Z,6.80
2023-01-09T23:07:03.426Z,6.80
2023-01-09T23:09:30.372Z,10.90
2023-01-09T23:12:03.499Z,8.40
2023-01-09T23:14:31.905Z,5.60
2023-01-09T23:16:58.974Z,7.90
2023-01-09T23:19:25.931Z,5.30
2023-01-09T23:21:52.986Z,7.20
2023-01-09T23:24:19.956Z,6.70
2023-01-09T23:26:47.824Z,6.40
2023-01-09T23:29:14.969Z,6.00
2023-01-09T23:31:42.069Z,8.10
2023-01-09T23:34:09.271Z,7.10
2023-01-09T23:36:36.318Z,7.40
2023-01-09T23:39:04.429Z,7.00
2023-01-09T23:41:50.138Z,5.20
2023-01-09T23:44:17.222Z,6.00
2023-01-09T23:46:44.149Z,7.30
2023-01-09T23:49:11.103Z,7.30
2023-01-09T23:51:38.043Z,6.20
2023-01-09T23:54:05.130Z,5.80
2023-01-09T23:56:34.057Z,5.60
2023-01-09T23:59:02.145Z,8.50
